sensor_id;sensor_type;location;lat;lon;timestamp;temperature;humidity
13699;DHT22;6921;53.642;9.956;2023-03-01T00:01:58;2.30;99.90
13699;DHT22;6921;53.642;9.956;2023-03-01T00:04:01;1.20;99.90
13699;DHT22;6921;53.642;9.956;2023-03-01T00:06:05;2.20;99.90
13699;DHT22;6921;53.642;9.956;2023-03-01T00:08:08;0.00;99.90
13699;DHT22;6921;53.642;9.956;2023-03-01T00:10:11;0.10;99.90
13699;DHT22;6921;53.642;9.956;2023-03-01T00:12:14;0.20;99.90
13699;DHT22;6921;53.642;9.956;2023-03-01T00:14:17;0.20;99.90
13699;DHT22;6921;53.642;9.956;2023-03-01T00:16:23;0.40;99.90
13699;DHT22;6921;53.642;9.956;2023-03-01T00:18:27;2.10;99.90
13699;DHT22;6921;53.642;9.956;2023-03-01T00:20:30;0.10;99.90
13699;DHT22;6921;53.642;9.956;2023-03-01T00:22:34;0.20;99.90
13699;DHT22;6921;53.642;9.956;2023-03-01T00:24:37;1.50;99.90
13699;DHT22;6921;53.642;9.956;2023-03-01T00:26:40;-0.10;99.90
13699;DHT22;6921;53.642;9.956;2023-03-01T00:28:43;0.40;99.90
13699;DHT22;6921;53.642;9.956;2023-03-01T00:30:47;1.70;99.90
13699;DHT22;6921;53.642;9.956;2023-03-01T00:32:50;1.70;99.90
13699;DHT22;6921;53.642;9.956;2023-03-01T00:34:54;1.50;99.90
13699;DHT22;6921;53.642;9.956;2023-03-01T00:36:58;0.70;99.90
13699;DHT22;6921;53.642;9.956;2023-03-01T00:39:11;0.10;99.90
13699;DHT22;6921;53.642;9.956;2023-03-01T00:41:16;0.10;99.90
13699;DHT22;6921;53.642;9.956;2023-03-01T00:43:20;-0.80;99.90
13699;DHT22;6921;53.642;9.956;2023-03-01T00:45:24;0.50;99.90
13699;DHT22;6921;53.642;9.956;2023-03-01T00:47:28;-0.40;99.90
13699;DHT22;6921;53.642;9.956;2023-03-01T00:49:31;-0.80;99.90
13699;DHT22;6921;53.642;9.956;2023-03-01T00:51:36;-0.50;99.90
13699;DHT22;6921;53.642;9.956;2023-03-01T00:53:41;-0.60;99.90
13699;DHT22;6921;53.642;9.956;2023-03-01T00:55:44;-0.50;99.90
13699;DHT22;6921;53.642;9.956;2023-03-01T00:57:47;0.00;99.90
13699;DHT22;6921;53.642;9.956;2023-03-01T00:59:50;1.20;99.90
13699;DHT22;6921;53.642;9.956;2023-03-01T01:01:53;-0.90;99.90
13699;DHT22;6921;53.642;9.956;2023-03-01T01:03:58;1.00;99.90
13699;DHT22;6921;53.642;9.956;2023-03-01T01:06:01;-0.40;99.90
13699;DHT22;6921;53.642;9.956;2023-03-01T01:08:12;-0.80;99.90
13699;DHT22;6921;53.642;9.956;2023-03-01T01:12:19;-0.70;99.90
13699;DHT22;6921;53.642;9.956;2023-03-01T01:14:22;-0.10;99.90
13699;DHT22;6921;53.642;9.956;2023-03-01T01:16:27;0.70;99.90
13699;DHT22;6921;53.642;9.956;2023-03-01T01:20:35;-0.70;99.90
13699;DHT22;6921;53.642;9.956;2023-03-01T01:28:50;-0.70;99.90
13699;DHT22;6921;53.642;9.956;2023-03-01T01:41:16;-0.90;99.90
13699;DHT22;6921;53.642;9.956;2023-03-01T01:43:22;-0.60;99.90
13699;DHT22;6921;53.642;9.956;2023-03-01T01:45:30;-0.70;99.90
13699;DHT22;6921;53.642;9.956;2023-03-01T01:47:33;-0.40;99.90
13699;DHT22;6921;53.642;9.956;2023-03-01T01:49:38;-0.90;99.90
13699;DHT22;6921;53.642;9.956;2023-03-01T01:53:53;-0.70;99.90
13699;DHT22;6921;53.642;9.956;2023-03-01T01:58:08;-0.50;99.90
13699;DHT22;6921;53.642;9.956;2023-03-01T02:00:14;-1.10;99.90
13699;DHT22;6921;53.642;9.956;2023-03-01T02:04:22;-0.50;99.90
13699;DHT22;6921;53.642;9.956;2023-03-01T02:06:28;-1.00;99.90
13699;DHT22;6921;53.642;9.956;2023-03-01T02:08:36;-1.30;99.90
13699;DHT22;6921;53.642;9.956;2023-03-01T02:10:41;-0.90;99.90
13699;DHT22;6921;53.642;9.956;2023-03-01T02:14:49;-0.80;99.90
13699;DHT22;6921;53.642;9.956;2023-03-01T02:16:52;-0.70;99.90
13699;DHT22;6921;53.642;9.956;2023-03-01T02:18:55;-0.90;99.90
13699;DHT22;6921;53.642;9.956;2023-03-01T02:23:09;-0.90;99.90
13699;DHT22;6921;53.642;9.956;2023-03-01T02:25:26;-0.80;99.90
13699;DHT22;6921;53.642;9.956;2023-03-01T02:27:35;-1.10;99.90
13699;DHT22;6921;53.642;9.956;2023-03-01T02:29:41;-0.90;99.90
13699;DHT22;6921;53.642;9.956;2023-03-01T02:31:45;1.10;99.90
13699;DHT22;6921;53.642;9.956;2023-03-01T02:33:48;-1.10;99.90
13699;DHT22;6921;53.642;9.956;2023-03-01T02:35:53;-1.10;99.90
13699;DHT22;6921;53.642;9.956;2023-03-01T02:37:57;-0.80;99.90
13699;DHT22;6921;53.642;9.956;2023-03-01T02:40:06;-0.80;99.90
13699;DHT22;6921;53.642;9.956;2023-03-01T02:42:15;-1.00;99.90
13699;DHT22;6921;53.642;9.956;2023-03-01T02:44:20;-1.10;99.90
13699;DHT22;6921;53.642;9.956;2023-03-01T02:46:25;-1.00;99.90
13699;DHT22;6921;53.642;9.956;2023-03-01T02:48:38;-1.10;99.90
13699;DHT22;6921;53.642;9.956;2023-03-01T02:55:02;-1.30;99.90
13699;DHT22;6921;53.642;9.956;2023-03-01T02:57:06;-1.10;99.90
13699;DHT22;6921;53.642;9.956;2023-03-01T03:03:20;-1.30;99.90
13699;DHT22;6921;53.642;9.956;2023-03-01T03:13:40;-1.10;99.90
13699;DHT22;6921;53.642;9.956;2023-03-01T03:17:53;-1.20;99.90
13699;DHT22;6921;53.642;9.956;2023-03-01T03:19:58;-1.10;99.90
13699;DHT22;6921;53.642;9.956;2023-03-01T03:24:04;-0.90;99.90
13699;DHT22;6921;53.642;9.956;2023-03-01T03:26:07;-1.30;99.90
13699;DHT22;6921;53.642;9.956;2023-03-01T03:28:15;-1.30;99.90
13699;DHT22;6921;53.642;9.956;2023-03-01T03:30:19;-1.30;99.90
13699;DHT22;6921;53.642;9.956;2023-03-01T03:32:23;-0.30;99.90
13699;DHT22;6921;53.642;9.956;2023-03-01T03:34:26;-1.30;99.90
13699;DHT22;6921;53.642;9.956;2023-03-01T03:36:31;-1.40;99.90
13699;DHT22;6921;53.642;9.956;2023-03-01T03:40:39;-1.20;99.90
13699;DHT22;6921;53.642;9.956;2023-03-01T03:42:42;0.60;99.90
13699;DHT22;6921;53.642;9.956;2023-03-01T03:44:45;-1.20;99.90
13699;DHT22;6921;53.642;9.956;2023-03-01T03:46:48;-1.40;99.90
13699;DHT22;6921;53.642;9.956;2023-03-01T03:50:55;-1.00;99.90
13699;DHT22;6921;53.642;9.956;2023-03-01T03:55:07;-0.50;99.90
13699;DHT22;6921;53.642;9.956;2023-03-01T03:59:15;-0.80;99.90
13699;DHT22;6921;53.642;9.956;2023-03-01T04:01:18;-0.80;99.90
13699;DHT22;6921;53.642;9.956;2023-03-01T04:03:23;-1.20;99.90
13699;DHT22;6921;53.642;9.956;2023-03-01T04:05:27;2.10;99.90
13699;DHT22;6921;53.642;9.956;2023-03-01T04:07:30;-0.80;99.90
13699;DHT22;6921;53.642;9.956;2023-03-01T04:09:34;-0.40;99.90
13699;DHT22;6921;53.642;9.956;2023-03-01T04:11:37;-0.80;99.90
13699;DHT22;6921;53.642;9.956;2023-03-01T04:13:40;1.00;99.90
13699;DHT22;6921;53.642;9.956;2023-03-01T04:15:43;1.10;99.90
13699;DHT22;6921;53.642;9.956;2023-03-01T04:17:46;-0.70;99.90
13699;DHT22;6921;53.642;9.956;2023-03-01T04:19:49;-0.90;99.90
13699;DHT22;6921;53.642;9.956;2023-03-01T04:21:52;0.60;99.90
13699;DHT22;6921;53.642;9.956;2023-03-01T04:23:55;1.50;99.90
13699;DHT22;6921;53.642;9.956;2023-03-01T04:26:00;2.20;99.90
13699;DHT22;6921;53.642;9.956;2023-03-01T04:28:03;-0.70;99.90
13699;DHT22;6921;53.642;9.956;2023-03-01T04:30:08;-0.60;99.90
13699;DHT22;6921;53.642;9.956;2023-03-01T04:32:11;-0.60;99.90
13699;DHT22;6921;53.642;9.956;2023-03-01T04:34:18;-0.80;99.90
13699;DHT22;6921;53.642;9.956;2023-03-01T04:36:22;-0.70;99.90
13699;DHT22;6921;53.642;9.956;2023-03-01T04:38:25;-0.50;99.90
13699;DHT22;6921;53.642;9.956;2023-03-01T04:40:29;-0.70;99.90
13699;DHT22;6921;53.642;9.956;2023-03-01T04:42:33;-0.40;99.90
13699;DHT22;6921;53.642;9.956;2023-03-01T04:44:36;0.80;99.90
13699;DHT22;6921;53.642;9.956;2023-03-01T04:46:39;0.70;99.90
13699;DHT22;6921;53.642;9.956;2023-03-01T04:48:43;1.40;99.90
13699;DHT22;6921;53.642;9.956;2023-03-01T04:50:47;0.40;99.90
13699;DHT22;6921;53.642;9.956;2023-03-01T04:52:50;1.70;99.90
13699;DHT22;6921;53.642;9.956;2023-03-01T04:54:53;-0.60;99.90
13699;DHT22;6921;53.642;9.956;2023-03-01T04:56:56;2.10;99.90
13699;DHT22;6921;53.642;9.956;2023-03-01T04:59:00;0.80;99.90
13699;DHT22;6921;53.642;9.956;2023-03-01T05:01:11;0.00;99.90
13699;DHT22;6921;53.642;9.956;2023-03-01T05:03:17;-0.40;99.90
13699;DHT22;6921;53.642;9.956;2023-03-01T05:05:21;0.90;99.90
13699;DHT22;6921;53.642;9.956;2023-03-01T05:07:27;1.40;99.90
13699;DHT22;6921;53.642;9.956;2023-03-01T05:09:30;-0.20;99.90
13699;DHT22;6921;53.642;9.956;2023-03-01T05:11:33;2.10;99.90
13699;DHT22;6921;53.642;9.956;2023-03-01T05:13:38;0.00;99.90
13699;DHT22;6921;53.642;9.956;2023-03-01T05:15:43;1.10;99.90
13699;DHT22;6921;53.642;9.956;2023-03-01T05:17:46;1.90;99.90
13699;DHT22;6921;53.642;9.956;2023-03-01T05:19:49;2.50;99.90
13699;DHT22;6921;53.642;9.956;2023-03-01T05:21:52;0.80;99.90
13699;DHT22;6921;53.642;9.956;2023-03-01T05:24:06;-0.80;99.90
13699;DHT22;6921;53.642;9.956;2023-03-01T05:26:13;-0.10;99.90
13699;DHT22;6921;53.642;9.956;2023-03-01T05:32:37;-0.10;99.90
13699;DHT22;6921;53.642;9.956;2023-03-01T05:42:55;0.00;99.90
13699;DHT22;6921;53.642;9.956;2023-03-01T05:49:06;0.00;99.90
13699;DHT22;6921;53.642;9.956;2023-03-01T06:20:02;0.00;99.90
13699;DHT22;6921;53.642;9.956;2023-03-01T06:22:07;0.10;99.90
13699;DHT22;6921;53.642;9.956;2023-03-01T06:38:36;0.10;99.90
13699;DHT22;6921;53.642;9.956;2023-03-01T06:42:43;0.30;99.90
13699;DHT22;6921;53.642;9.956;2023-03-01T06:55:09;0.50;99.90
13699;DHT22;6921;53.642;9.956;2023-03-01T07:11:37;0.90;99.90
13699;DHT22;6921;53.642;9.956;2023-03-01T07:28:07;1.40;99.90
13699;DHT22;6921;53.642;9.956;2023-03-01T07:44:36;2.00;99.90
13699;DHT22;6921;53.642;9.956;2023-03-01T07:46:39;2.10;99.90
13699;DHT22;6921;53.642;9.956;2023-03-01T07:50:45;2.30;99.90
13699;DHT22;6921;53.642;9.956;2023-03-01T07:52:49;3.10;99.90
13699;DHT22;6921;53.642;9.956;2023-03-01T07:54:52;2.70;99.90
13699;DHT22;6921;53.642;9.956;2023-03-01T07:56:56;2.70;99.90
13699;DHT22;6921;53.642;9.956;2023-03-01T07:58:59;2.50;99.90
13699;DHT22;6921;53.642;9.956;2023-03-01T08:01:04;2.70;99.90
13699;DHT22;6921;53.642;9.956;2023-03-01T08:05:11;2.50;99.90
13699;DHT22;6921;53.642;9.956;2023-03-01T08:07:14;2.80;99.90
13699;DHT22;6921;53.642;9.956;2023-03-01T08:09:17;2.80;99.90
13699;DHT22;6921;53.642;9.956;2023-03-01T08:11:21;3.00;99.90
13699;DHT22;6921;53.642;9.956;2023-03-01T08:15:28;2.70;99.90
13699;DHT22;6921;53.642;9.956;2023-03-01T08:17:33;2.70;99.90
13699;DHT22;6921;53.642;9.956;2023-03-01T08:19:36;2.80;99.90
13699;DHT22;6921;53.642;9.956;2023-03-01T08:21:40;2.80;99.90
13699;DHT22;6921;53.642;9.956;2023-03-01T08:23:44;2.80;99.90
13699;DHT22;6921;53.642;9.956;2023-03-01T08:25:47;3.60;99.90
13699;DHT22;6921;53.642;9.956;2023-03-01T08:27:50;2.70;99.90
13699;DHT22;6921;53.642;9.956;2023-03-01T08:29:53;2.60;99.90
13699;DHT22;6921;53.642;9.956;2023-03-01T08:31:56;2.80;99.90
13699;DHT22;6921;53.642;9.956;2023-03-01T08:34:03;2.80;99.90
13699;DHT22;6921;53.642;9.956;2023-03-01T08:36:07;2.80;99.90
13699;DHT22;6921;53.642;9.956;2023-03-01T08:38:10;2.90;99.90
13699;DHT22;6921;53.642;9.956;2023-03-01T08:40:14;3.00;99.90
13699;DHT22;6921;53.642;9.956;2023-03-01T08:44:20;3.00;99.90
13699;DHT22;6921;53.642;9.956;2023-03-01T08:46:23;2.90;99.90
13699;DHT22;6921;53.642;9.956;2023-03-01T08:48:27;3.00;99.90
13699;DHT22;6921;53.642;9.956;2023-03-01T08:50:32;3.00;99.90
13699;DHT22;6921;53.642;9.956;2023-03-01T08:52:35;2.90;99.90
13699;DHT22;6921;53.642;9.956;2023-03-01T08:54:38;3.30;99.90
13699;DHT22;6921;53.642;9.956;2023-03-01T08:56:41;3.30;99.90
13699;DHT22;6921;53.642;9.956;2023-03-01T08:58:46;2.90;99.90
13699;DHT22;6921;53.642;9.956;2023-03-01T09:00:49;3.10;99.90
13699;DHT22;6921;53.642;9.956;2023-03-01T09:02:52;3.60;99.90
13699;DHT22;6921;53.642;9.956;2023-03-01T09:04:55;3.20;99.90
13699;DHT22;6921;53.642;9.956;2023-03-01T09:07:00;3.30;99.90
13699;DHT22;6921;53.642;9.956;2023-03-01T09:09:06;4.00;99.90
13699;DHT22;6921;53.642;9.956;2023-03-01T09:11:12;3.80;99.90
13699;DHT22;6921;53.642;9.956;2023-03-01T09:13:17;4.00;99.90
13699;DHT22;6921;53.642;9.956;2023-03-01T09:15:20;3.50;99.90
13699;DHT22;6921;53.642;9.956;2023-03-01T09:17:23;3.80;99.90
13699;DHT22;6921;53.642;9.956;2023-03-01T09:19:26;3.80;99.90
13699;DHT22;6921;53.642;9.956;2023-03-01T09:21:29;3.40;99.90
13699;DHT22;6921;53.642;9.956;2023-03-01T09:23:44;4.60;99.90
13699;DHT22;6921;53.642;9.956;2023-03-01T09:25:48;3.90;99.90
13699;DHT22;6921;53.642;9.956;2023-03-01T09:27:51;4.50;99.90
13699;DHT22;6921;53.642;9.956;2023-03-01T09:29:55;4.00;99.90
13699;DHT22;6921;53.642;9.956;2023-03-01T09:31:58;3.90;99.90
13699;DHT22;6921;53.642;9.956;2023-03-01T09:34:02;3.90;99.90
13699;DHT22;6921;53.642;9.956;2023-03-01T09:36:07;4.30;99.90
13699;DHT22;6921;53.642;9.956;2023-03-01T09:38:11;4.00;99.90
13699;DHT22;6921;53.642;9.956;2023-03-01T09:40:18;4.30;99.90
13699;DHT22;6921;53.642;9.956;2023-03-01T09:42:22;3.90;99.90
13699;DHT22;6921;53.642;9.956;2023-03-01T09:44:32;4.30;99.90
13699;DHT22;6921;53.642;9.956;2023-03-01T09:46:42;4.10;99.90
13699;DHT22;6921;53.642;9.956;2023-03-01T09:48:49;5.40;99.90
13699;DHT22;6921;53.642;9.956;2023-03-01T09:50:54;4.20;99.90
13699;DHT22;6921;53.642;9.956;2023-03-01T09:53:02;1.30;99.90
13699;DHT22;6921;53.642;9.956;2023-03-01T09:55:10;4.10;99.90
13699;DHT22;6921;53.642;9.956;2023-03-01T09:57:19;4.20;99.90
13699;DHT22;6921;53.642;9.956;2023-03-01T09:59:29;4.40;99.90
13699;DHT22;6921;53.642;9.956;2023-03-01T10:01:40;3.60;99.90
13699;DHT22;6921;53.642;9.956;2023-03-01T10:04:00;4.70;99.90
13699;DHT22;6921;53.642;9.956;2023-03-01T10:06:11;4.90;99.90
13699;DHT22;6921;53.642;9.956;2023-03-01T10:08:39;5.20;99.90
13699;DHT22;6921;53.642;9.956;2023-03-01T10:10:44;5.40;99.90
13699;DHT22;6921;53.642;9.956;2023-03-01T10:12:50;5.50;99.90
13699;DHT22;6921;53.642;9.956;2023-03-01T10:15:00;5.80;99.90
13699;DHT22;6921;53.642;9.956;2023-03-01T10:17:10;6.20;99.90
13699;DHT22;6921;53.642;9.956;2023-03-01T10:19:20;6.40;99.90
13699;DHT22;6921;53.642;9.956;2023-03-01T10:21:27;6.80;99.90
13699;DHT22;6921;53.642;9.956;2023-03-01T10:23:32;7.20;99.90
13699;DHT22;6921;53.642;9.956;2023-03-01T10:25:47;6.90;99.90
13699;DHT22;6921;53.642;9.956;2023-03-01T10:28:02;6.90;99.90
13699;DHT22;6921;53.642;9.956;2023-03-01T10:30:13;7.10;99.90
13699;DHT22;6921;53.642;9.956;2023-03-01T10:34:29;7.30;99.90
13699;DHT22;6921;53.642;9.956;2023-03-01T10:38:48;7.50;99.90
13699;DHT22;6921;53.642;9.956;2023-03-01T10:40:55;7.80;99.90
13699;DHT22;6921;53.642;9.956;2023-03-01T10:43:03;7.80;99.90
13699;DHT22;6921;53.642;9.956;2023-03-01T10:45:25;7.90;99.90
13699;DHT22;6921;53.642;9.956;2023-03-01T10:49:35;8.20;99.90
13699;DHT22;6921;53.642;9.956;2023-03-01T11:00:20;8.40;99.90
13699;DHT22;6921;53.642;9.956;2023-03-01T11:02:28;8.10;99.90
13699;DHT22;6921;53.642;9.956;2023-03-01T11:08:41;8.40;99.90
13699;DHT22;6921;53.642;9.956;2023-03-01T11:12:48;9.00;99.90
13699;DHT22;6921;53.642;9.956;2023-03-01T11:14:54;9.00;99.90
13699;DHT22;6921;53.642;9.956;2023-03-01T11:17:03;9.70;99.90
13699;DHT22;6921;53.642;9.956;2023-03-01T11:23:25;9.70;99.90
13699;DHT22;6921;53.642;9.956;2023-03-01T11:25:34;9.40;99.90
13699;DHT22;6921;53.642;9.956;2023-03-01T11:27:41;9.60;99.90
13699;DHT22;6921;53.642;9.956;2023-03-01T11:29:46;10.10;99.90
13699;DHT22;6921;53.642;9.956;2023-03-01T11:31:54;10.60;99.90
13699;DHT22;6921;53.642;9.956;2023-03-01T11:34:09;10.80;68.20
13699;DHT22;6921;53.642;9.956;2023-03-01T11:36:25;10.90;58.50
13699;DHT22;6921;53.642;9.956;2023-03-01T11:38:34;11.20;56.90
13699;DHT22;6921;53.642;9.956;2023-03-01T11:40:41;11.20;47.90
13699;DHT22;6921;53.642;9.956;2023-03-01T11:42:59;11.30;28.60
13699;DHT22;6921;53.642;9.956;2023-03-01T11:45:08;11.40;28.90
13699;DHT22;6921;53.642;9.956;2023-03-01T11:47:27;11.40;35.00
13699;DHT22;6921;53.642;9.956;2023-03-01T11:49:54;12.00;33.60
13699;DHT22;6921;53.642;9.956;2023-03-01T11:52:03;12.20;35.40
13699;DHT22;6921;53.642;9.956;2023-03-01T11:54:27;13.20;99.90
13699;DHT22;6921;53.642;9.956;2023-03-01T11:58:54;13.50;18.50
13699;DHT22;6921;53.642;9.956;2023-03-01T12:01:12;13.70;49.00
13699;DHT22;6921;53.642;9.956;2023-03-01T12:03:31;13.60;7.70
13699;DHT22;6921;53.642;9.956;2023-03-01T12:05:59;13.70;4.60
13699;DHT22;6921;53.642;9.956;2023-03-01T12:08:10;14.30;1.00
13699;DHT22;6921;53.642;9.956;2023-03-01T12:12:32;13.70;1.00
13699;DHT22;6921;53.642;9.956;2023-03-01T12:14:50;13.70;1.00
13699;DHT22;6921;53.642;9.956;2023-03-01T12:17:27;14.10;1.00
13699;DHT22;6921;53.642;9.956;2023-03-01T12:19:51;14.50;22.50
13699;DHT22;6921;53.642;9.956;2023-03-01T12:22:13;14.40;8.20
13699;DHT22;6921;53.642;9.956;2023-03-01T12:27:18;15.00;99.90
13699;DHT22;6921;53.642;9.956;2023-03-01T12:29:25;15.60;99.90
13699;DHT22;6921;53.642;9.956;2023-03-01T12:36:26;16.00;99.90
13699;DHT22;6921;53.642;9.956;2023-03-01T12:38:42;15.60;99.90
13699;DHT22;6921;53.642;9.956;2023-03-01T12:41:20;15.50;99.90
13699;DHT22;6921;53.642;9.956;2023-03-01T12:43:39;15.40;99.90
13699;DHT22;6921;53.642;9.956;2023-03-01T12:46:18;15.20;99.90
13699;DHT22;6921;53.642;9.956;2023-03-01T12:48:31;15.20;99.90
13699;DHT22;6921;53.642;9.956;2023-03-01T12:50:41;15.50;99.90
13699;DHT22;6921;53.642;9.956;2023-03-01T12:52:47;15.60;99.90
13699;DHT22;6921;53.642;9.956;2023-03-01T12:54:54;15.60;99.90
13699;DHT22;6921;53.642;9.956;2023-03-01T12:57:06;15.50;99.90
13699;DHT22;6921;53.642;9.956;2023-03-01T13:01:25;15.50;99.90
13699;DHT22;6921;53.642;9.956;2023-03-01T13:03:37;15.40;99.90
13699;DHT22;6921;53.642;9.956;2023-03-01T13:05:54;15.10;99.90
13699;DHT22;6921;53.642;9.956;2023-03-01T13:08:04;14.90;99.90
13699;DHT22;6921;53.642;9.956;2023-03-01T13:12:49;15.00;99.90
13699;DHT22;6921;53.642;9.956;2023-03-01T13:19:13;13.90;1.00
13699;DHT22;6921;53.642;9.956;2023-03-01T13:21:30;13.70;1.00
13699;DHT22;6921;53.642;9.956;2023-03-01T13:26:05;12.70;1.00
13699;DHT22;6921;53.642;9.956;2023-03-01T13:35:42;9.80;99.90
13699;DHT22;6921;53.642;9.956;2023-03-01T13:46:09;8.60;99.90
13699;DHT22;6921;53.642;9.956;2023-03-01T13:52:44;8.30;99.90
13699;DHT22;6921;53.642;9.956;2023-03-01T13:58:59;8.50;99.90
13699;DHT22;6921;53.642;9.956;2023-03-01T14:01:06;8.60;99.90
13699;DHT22;6921;53.642;9.956;2023-03-01T14:03:13;8.50;99.90
13699;DHT22;6921;53.642;9.956;2023-03-01T14:07:21;8.40;99.90
13699;DHT22;6921;53.642;9.956;2023-03-01T14:09:27;8.50;99.90
13699;DHT22;6921;53.642;9.956;2023-03-01T14:11:54;8.40;99.90
13699;DHT22;6921;53.642;9.956;2023-03-01T14:14:23;8.40;99.90
13699;DHT22;6921;53.642;9.956;2023-03-01T14:16:37;8.30;99.90
13699;DHT22;6921;53.642;9.956;2023-03-01T14:22:56;8.30;99.90
13699;DHT22;6921;53.642;9.956;2023-03-01T14:29:23;8.00;99.90
13699;DHT22;6921;53.642;9.956;2023-03-01T14:31:36;8.00;99.90
13699;DHT22;6921;53.642;9.956;2023-03-01T14:33:55;8.10;99.90
13699;DHT22;6921;53.642;9.956;2023-03-01T14:40:23;8.00;99.90
13699;DHT22;6921;53.642;9.956;2023-03-01T14:44:33;8.00;99.90
13699;DHT22;6921;53.642;9.956;2023-03-01T14:59:09;7.90;99.90
13699;DHT22;6921;53.642;9.956;2023-03-01T15:03:24;7.80;99.90
13699;DHT22;6921;53.642;9.956;2023-03-01T15:07:36;7.80;99.90
13699;DHT22;6921;53.642;9.956;2023-03-01T15:15:53;7.80;99.90
13699;DHT22;6921;53.642;9.956;2023-03-01T15:18:13;7.80;99.90
13699;DHT22;6921;53.642;9.956;2023-03-01T15:22:26;7.80;99.90
13699;DHT22;6921;53.642;9.956;2023-03-01T15:26:37;7.90;99.90
13699;DHT22;6921;53.642;9.956;2023-03-01T15:28:49;7.80;99.90
13699;DHT22;6921;53.642;9.956;2023-03-01T15:33:27;7.70;99.90
13699;DHT22;6921;53.642;9.956;2023-03-01T15:35:40;7.80;99.90
13699;DHT22;6921;53.642;9.956;2023-03-01T15:37:46;7.80;99.90
13699;DHT22;6921;53.642;9.956;2023-03-01T15:39:53;7.80;99.90
13699;DHT22;6921;53.642;9.956;2023-03-01T15:48:17;7.70;99.90
13699;DHT22;6921;53.642;9.956;2023-03-01T15:50:24;7.70;99.90
13699;DHT22;6921;53.642;9.956;2023-03-01T16:11:19;7.20;99.90
13699;DHT22;6921;53.642;9.956;2023-03-01T16:23:50;6.90;99.90
13699;DHT22;6921;53.642;9.956;2023-03-01T16:56:56;5.90;99.90
13699;DHT22;6921;53.642;9.956;2023-03-01T17:13:28;5.60;99.90
13699;DHT22;6921;53.642;9.956;2023-03-01T17:25:54;5.20;99.90
13699;DHT22;6921;53.642;9.956;2023-03-01T17:36:12;4.90;99.90
13699;DHT22;6921;53.642;9.956;2023-03-01T17:38:16;4.80;99.90
13699;DHT22;6921;53.642;9.956;2023-03-01T17:42:23;4.70;99.90
13699;DHT22;6921;53.642;9.956;2023-03-01T17:44:26;4.70;99.90
13699;DHT22;6921;53.642;9.956;2023-03-01T17:46:30;4.60;99.90
13699;DHT22;6921;53.642;9.956;2023-03-01T18:03:00;3.80;99.90
13699;DHT22;6921;53.642;9.956;2023-03-01T18:11:14;3.50;99.90
13699;DHT22;6921;53.642;9.956;2023-03-01T18:17:24;3.30;99.90
13699;DHT22;6921;53.642;9.956;2023-03-01T18:19:29;3.60;99.90
13699;DHT22;6921;53.642;9.956;2023-03-01T18:21:32;3.10;99.90
13699;DHT22;6921;53.642;9.956;2023-03-01T18:23:35;4.90;99.90
13699;DHT22;6921;53.642;9.956;2023-03-01T18:25:38;3.20;99.90
13699;DHT22;6921;53.642;9.956;2023-03-01T18:29:45;2.80;99.90
13699;DHT22;6921;53.642;9.956;2023-03-01T18:31:48;2.80;99.90
13699;DHT22;6921;53.642;9.956;2023-03-01T18:33:52;3.90;99.90
13699;DHT22;6921;53.642;9.956;2023-03-01T18:35:57;2.60;99.90
13699;DHT22;6921;53.642;9.956;2023-03-01T18:56:36;2.30;99.90
13699;DHT22;6921;53.642;9.956;2023-03-01T18:58:40;2.80;99.90
13699;DHT22;6921;53.642;9.956;2023-03-01T19:00:44;3.50;99.90
13699;DHT22;6921;53.642;9.956;2023-03-01T19:02:47;2.70;99.90
13699;DHT22;6921;53.642;9.956;2023-03-01T19:04:50;2.70;99.90
13699;DHT22;6921;53.642;9.956;2023-03-01T19:06:53;2.40;99.90
13699;DHT22;6921;53.642;9.956;2023-03-01T19:08:58;2.60;99.90
13699;DHT22;6921;53.642;9.956;2023-03-01T19:11:03;3.00;99.90
13699;DHT22;6921;53.642;9.956;2023-03-01T19:13:06;2.40;99.90
13699;DHT22;6921;53.642;9.956;2023-03-01T19:15:10;2.40;99.90
13699;DHT22;6921;53.642;9.956;2023-03-01T19:17:13;2.10;99.90
13699;DHT22;6921;53.642;9.956;2023-03-01T19:19:16;3.20;99.90
13699;DHT22;6921;53.642;9.956;2023-03-01T19:21:21;1.90;99.90
13699;DHT22;6921;53.642;9.956;2023-03-01T19:23:26;2.50;99.90
13699;DHT22;6921;53.642;9.956;2023-03-01T19:25:30;3.00;99.90
13699;DHT22;6921;53.642;9.956;2023-03-01T19:27:35;2.70;99.90
13699;DHT22;6921;53.642;9.956;2023-03-01T19:29:38;2.60;99.90
13699;DHT22;6921;53.642;9.956;2023-03-01T19:31:42;2.50;99.90
13699;DHT22;6921;53.642;9.956;2023-03-01T19:33:45;2.70;99.90
13699;DHT22;6921;53.642;9.956;2023-03-01T19:35:48;2.60;99.90
13699;DHT22;6921;53.642;9.956;2023-03-01T19:37:52;2.50;99.90
13699;DHT22;6921;53.642;9.956;2023-03-01T19:39:55;2.40;99.90
13699;DHT22;6921;53.642;9.956;2023-03-01T19:41:59;2.50;99.90
13699;DHT22;6921;53.642;9.956;2023-03-01T19:44:03;2.60;99.90
13699;DHT22;6921;53.642;9.956;2023-03-01T19:46:06;2.40;99.90
13699;DHT22;6921;53.642;9.956;2023-03-01T19:48:10;2.50;99.90
13699;DHT22;6921;53.642;9.956;2023-03-01T19:50:13;2.60;99.90
13699;DHT22;6921;53.642;9.956;2023-03-01T19:52:16;2.60;99.90
13699;DHT22;6921;53.642;9.956;2023-03-01T19:54:19;2.60;99.90
13699;DHT22;6921;53.642;9.956;2023-03-01T19:56:23;3.30;99.90
13699;DHT22;6921;53.642;9.956;2023-03-01T19:58:29;3.20;99.90
13699;DHT22;6921;53.642;9.956;2023-03-01T20:00:32;2.70;99.90
13699;DHT22;6921;53.642;9.956;2023-03-01T20:02:35;2.60;99.90
13699;DHT22;6921;53.642;9.956;2023-03-01T20:04:38;3.00;99.90
13699;DHT22;6921;53.642;9.956;2023-03-01T20:06:44;3.20;99.90
13699;DHT22;6921;53.642;9.956;2023-03-01T20:08:47;2.90;99.90
13699;DHT22;6921;53.642;9.956;2023-03-01T20:10:51;2.40;99.90
13699;DHT22;6921;53.642;9.956;2023-03-01T20:12:54;2.40;99.90
13699;DHT22;6921;53.642;9.956;2023-03-01T20:14:58;2.50;99.90
13699;DHT22;6921;53.642;9.956;2023-03-01T20:17:01;2.70;99.90
13699;DHT22;6921;53.642;9.956;2023-03-01T20:19:04;2.70;99.90
13699;DHT22;6921;53.642;9.956;2023-03-01T20:21:08;2.40;99.90
13699;DHT22;6921;53.642;9.956;2023-03-01T20:23:24;2.50;99.90
13699;DHT22;6921;53.642;9.956;2023-03-01T20:25:27;2.40;99.90
13699;DHT22;6921;53.642;9.956;2023-03-01T20:27:30;2.60;99.90
13699;DHT22;6921;53.642;9.956;2023-03-01T20:29:33;2.70;99.90
13699;DHT22;6921;53.642;9.956;2023-03-01T20:31:37;2.60;99.90
13699;DHT22;6921;53.642;9.956;2023-03-01T20:33:43;5.90;99.90
13699;DHT22;6921;53.642;9.956;2023-03-01T20:35:46;2.50;99.90
13699;DHT22;6921;53.642;9.956;2023-03-01T20:37:50;2.50;99.90
13699;DHT22;6921;53.642;9.956;2023-03-01T20:39:54;4.00;99.90
13699;DHT22;6921;53.642;9.956;2023-03-01T20:41:57;5.20;99.90
13699;DHT22;6921;53.642;9.956;2023-03-01T20:44:00;4.10;99.90
13699;DHT22;6921;53.642;9.956;2023-03-01T20:46:06;3.90;99.90
13699;DHT22;6921;53.642;9.956;2023-03-01T20:48:10;2.50;99.90
13699;DHT22;6921;53.642;9.956;2023-03-01T20:50:15;2.40;99.90
13699;DHT22;6921;53.642;9.956;2023-03-01T20:52:18;2.50;99.90
13699;DHT22;6921;53.642;9.956;2023-03-01T20:54:21;2.90;99.90
13699;DHT22;6921;53.642;9.956;2023-03-01T20:56:25;2.50;99.90
13699;DHT22;6921;53.642;9.956;2023-03-01T20:58:28;2.40;99.90
13699;DHT22;6921;53.642;9.956;2023-03-01T21:00:33;2.40;99.90
13699;DHT22;6921;53.642;9.956;2023-03-01T21:02:36;2.80;99.90
13699;DHT22;6921;53.642;9.956;2023-03-01T21:04:41;2.50;99.90
13699;DHT22;6921;53.642;9.956;2023-03-01T21:06:44;2.40;99.90
13699;DHT22;6921;53.642;9.956;2023-03-01T21:08:47;2.40;99.90
13699;DHT22;6921;53.642;9.956;2023-03-01T21:10:50;2.20;99.90
13699;DHT22;6921;53.642;9.956;2023-03-01T21:12:54;2.20;99.90